createdAt,value
2023-08-24T00:01:59.165Z,94578.53
2023-08-24T00:04:25.881Z,94567.63
2023-08-24T00:06:53.043Z,94587.50
2023-08-24T00:09:20.197Z,94587.47
2023-08-24T00:11:47.166Z,94573.81
2023-08-24T00:14:13.989Z,94579.69
2023-08-24T00:16:41.985Z,94574.97
2023-08-24T00:19:08.958Z,94575.34
2023-08-24T00:21:35.801Z,94568.38
2023-08-24T00:24:02.546Z,94569.16
2023-08-24T00:26:29.394Z,94568.38
2023-08-24T00:28:56.332Z,94565.63
2023-08-24T00:31:23.285Z,94545.75
2023-08-24T00:33:51.940Z,94562.13
2023-08-24T00:36:24.429Z,94550.06
2023-08-24T00:38:52.833Z,94539.94
2023-08-24T00:41:20.208Z,94546.88
2023-08-24T00:43:47.744Z,94534.44
2023-08-24T00:46:14.618Z,94548.44
2023-08-24T00:48:41.718Z,94542.97
2023-08-24T00:51:09.034Z,94544.47
2023-08-24T00:53:37.407Z,94551.47
2023-08-24T00:56:07.222Z,94551.41
2023-08-24T00:58:34.498Z,94554.91
2023-08-24T01:01:01.380Z,94549.78
2023-08-24T01:03:28.455Z,94563.78
2023-08-24T01:05:55.306Z,94562.19
2023-08-24T01:08:23.316Z,94548.94
2023-08-24T01:10:57.090Z,94550.50
2023-08-24T01:13:51.234Z,94529.47
2023-08-24T01:16:23.262Z,94541.56
2023-08-24T01:18:51.174Z,94541.97
2023-08-24T01:21:18.764Z,94534.16
2023-08-24T01:24:09.230Z,94542.75
2023-08-24T01:26:38.274Z,94529.06
2023-08-24T01:29:05.996Z,94539.59
2023-08-24T01:31:33.982Z,94531.00
2023-08-24T01:34:02.637Z,94536.84
2023-08-24T01:36:29.521Z,94506.03
2023-08-24T01:39:15.140Z,94520.50
2023-08-24T01:41:45.002Z,94518.97
2023-08-24T01:44:15.831Z,94522.47
2023-08-24T01:46:44.415Z,94525.97
2023-08-24T01:49:14.793Z,94528.31
2023-08-24T01:51:42.643Z,94526.75
2023-08-24T01:54:09.474Z,94524.41
2023-08-24T01:56:36.230Z,94524.78
2023-08-24T01:59:03.024Z,94513.50
2023-08-24T02:01:29.821Z,94508.41
2023-08-24T02:03:57.066Z,94514.19
2023-08-24T02:06:23.899Z,94502.94
2023-08-24T02:08:50.784Z,94509.53
2023-08-24T02:11:17.614Z,94506.38
2023-08-24T02:13:44.347Z,94490.38
2023-08-24T02:16:11.210Z,94516.84
2023-08-24T02:18:38.073Z,94505.97
2023-08-24T02:21:09.850Z,94498.56
2023-08-24T02:23:36.947Z,94495.00
2023-08-24T02:26:04.361Z,94497.72
2023-08-24T02:28:31.176Z,94500.81
2023-08-24T02:31:04.581Z,94493.41
2023-08-24T02:33:32.154Z,94499.22
2023-08-24T02:35:59.032Z,94496.03
2023-08-24T02:38:26.036Z,94499.91
2023-08-24T02:41:03.888Z,94492.50
2023-08-24T02:43:31.278Z,94492.81
2023-08-24T02:46:05.801Z,94498.66
2023-08-24T02:48:33.856Z,94500.97
2023-08-24T02:51:04.420Z,94497.84
2023-08-24T02:53:31.474Z,94497.06
2023-08-24T02:55:58.318Z,94490.03
2023-08-24T02:58:25.226Z,94482.97
2023-08-24T03:00:51.998Z,94496.97
2023-08-24T03:03:18.726Z,94505.47
2023-08-24T03:06:00.384Z,94510.84
2023-08-24T03:08:30.157Z,94510.03
2023-08-24T03:10:57.935Z,94502.63
2023-08-24T03:13:24.839Z,94513.84
2023-08-24T03:15:53.482Z,94510.78
2023-08-24T03:18:20.974Z,94512.72
2023-08-24T03:20:49.769Z,94513.50
2023-08-24T03:23:17.437Z,94513.13
2023-08-24T03:25:45.131Z,94505.75
2023-08-24T03:28:12.484Z,94489.38
2023-08-24T03:30:40.901Z,94499.13
2023-08-24T03:33:08.409Z,94493.66
2023-08-24T03:35:35.259Z,94490.56
2023-08-24T03:38:02.145Z,94491.72
2023-08-24T03:40:28.963Z,94484.00
2023-08-24T03:42:55.769Z,94487.22
2023-08-24T03:45:23.404Z,94490.75
2023-08-24T03:47:50.991Z,94482.16
2023-08-24T03:50:18.315Z,94499.19
2023-08-24T03:52:45.174Z,94502.59
2023-08-24T03:55:11.967Z,94493.97
2023-08-24T03:57:41.551Z,94491.41
2023-08-24T04:00:12.413Z,94492.13
2023-08-24T04:02:42.950Z,94476.28
2023-08-24T04:05:13.948Z,94476.00
2023-08-24T04:07:42.432Z,94470.97
2023-08-24T04:10:10.419Z,94470.97
2023-08-24T04:12:37.235Z,94464.69
2023-08-24T04:15:04.532Z,94472.13
2023-08-24T04:17:31.579Z,94476.13
2023-08-24T04:19:58.388Z,94466.81
2023-08-24T04:22:25.103Z,94480.81
2023-08-24T04:24:51.871Z,94468.78
2023-08-24T04:27:18.656Z,94478.91
2023-08-24T04:29:45.428Z,94481.22
2023-08-24T04:32:12.109Z,94480.09
2023-08-24T04:34:38.866Z,94471.16
2023-08-24T04:37:08.042Z,94471.94
2023-08-24T04:39:34.921Z,94478.91
2023-08-24T04:42:01.839Z,94487.44
2023-08-24T04:44:28.616Z,94473.28
2023-08-24T04:46:55.387Z,94477.94
2023-08-24T04:49:22.139Z,94475.16
2023-08-24T04:51:48.839Z,94484.56
2023-08-24T04:54:15.526Z,94468.69
2023-08-24T04:56:42.360Z,94456.03
2023-08-24T04:59:09.177Z,94455.94
2023-08-24T05:01:36.151Z,94456.97
2023-08-24T05:04:02.893Z,94456.72
2023-08-24T05:06:29.682Z,94453.66
2023-08-24T05:08:56.613Z,94457.63
2023-08-24T05:11:27.720Z,94452.59
2023-08-24T05:13:54.576Z,94456.13
2023-08-24T05:16:21.289Z,94450.31
2023-08-24T05:18:48.027Z,94444.09
2023-08-24T05:21:14.970Z,94456.22
2023-08-24T05:23:41.751Z,94454.66
2023-08-24T05:26:08.527Z,94448.81
2023-08-24T05:28:35.260Z,94450.75
2023-08-24T05:31:02.129Z,94450.34
2023-08-24T05:33:32.059Z,94445.66
2023-08-24T05:35:59.898Z,94447.97
2023-08-24T05:38:26.801Z,94444.47
2023-08-24T05:40:53.589Z,94440.16
2023-08-24T05:43:20.777Z,94437.47
2023-08-24T05:45:48.079Z,94438.69
2023-08-24T05:48:14.984Z,94442.97
2023-08-24T05:50:46.660Z,94441.03
2023-08-24T05:53:14.005Z,94432.88
2023-08-24T05:55:40.953Z,94440.69
2023-08-24T05:58:08.008Z,94439.88
2023-08-24T06:00:34.809Z,94437.56
2023-08-24T06:03:01.623Z,94432.50
2023-08-24T06:05:28.375Z,94429.41
2023-08-24T06:07:55.846Z,94438.75
2023-08-24T06:10:22.912Z,94425.91
2023-08-24T06:12:49.699Z,94420.44
2023-08-24T06:15:16.686Z,94413.44
2023-08-24T06:17:43.783Z,94410.72
2023-08-24T06:20:13.904Z,94416.16
2023-08-24T06:22:40.660Z,94414.97
2023-08-24T06:25:09.935Z,94415.38
2023-08-24T06:27:37.029Z,94415.78
2023-08-24T06:30:04.866Z,94414.94
2023-08-24T06:32:31.792Z,94412.94
2023-08-24T06:34:58.637Z,94407.03
2023-08-24T06:37:25.333Z,94402.75
2023-08-24T06:39:52.039Z,94402.28
2023-08-24T06:42:18.836Z,94410.38
2023-08-24T06:44:51.280Z,94405.75
2023-08-24T06:47:18.202Z,94408.78
2023-08-24T06:49:45.064Z,94407.56
2023-08-24T06:52:11.804Z,94411.41
2023-08-24T06:54:38.655Z,94408.94
2023-08-24T06:57:06.158Z,94419.38
2023-08-24T06:59:33.050Z,94422.47
2023-08-24T07:01:59.932Z,94414.44
2023-08-24T07:04:28.297Z,94415.09
2023-08-24T07:06:55.265Z,94412.59
2023-08-24T07:09:22.301Z,94420.25
2023-08-24T07:11:50.150Z,94408.75
2023-08-24T07:14:16.932Z,94418.53
2023-08-24T07:16:43.985Z,94418.34
2023-08-24T07:19:10.820Z,94418.38
2023-08-24T07:21:37.842Z,94422.75
2023-08-24T07:24:05.343Z,94418.13
2023-08-24T07:26:32.638Z,94423.22
2023-08-24T07:28:59.495Z,94431.13
2023-08-24T07:31:26.543Z,94435.84
2023-08-24T07:33:53.469Z,94433.47
2023-08-24T07:36:20.349Z,94430.75
2023-08-24T07:38:50.495Z,94429.47
2023-08-24T07:41:19.482Z,94437.34
2023-08-24T07:43:46.480Z,94433.47
2023-08-24T07:46:13.332Z,94422.88
2023-08-24T07:48:40.425Z,94418.50
2023-08-24T07:51:08.859Z,94420.75
2023-08-24T07:53:35.623Z,94423.44
2023-08-24T07:56:02.842Z,94425.38
2023-08-24T07:58:32.464Z,94425.06
2023-08-24T08:01:01.212Z,94424.88
2023-08-24T08:03:28.488Z,94428.00
2023-08-24T08:05:55.933Z,94425.13
2023-08-24T08:08:22.801Z,94427.09
2023-08-24T08:10:59.560Z,94415.97
2023-08-24T08:13:26.990Z,94414.97
2023-08-24T08:15:53.754Z,94417.38
2023-08-24T08:18:21.089Z,94428.56
2023-08-24T08:20:52.017Z,94420.19
2023-08-24T08:23:18.736Z,94418.47
2023-08-24T08:25:45.438Z,94389.53
2023-08-24T08:28:12.380Z,94402.06
2023-08-24T08:30:39.249Z,94400.16
2023-08-24T08:33:06.135Z,94400.25
2023-08-24T08:35:32.917Z,94396.03
2023-08-24T08:37:59.689Z,94405.97
2023-08-24T08:40:31.362Z,94416.31
2023-08-24T08:43:01.187Z,94414.84
2023-08-24T08:45:29.302Z,94408.06
2023-08-24T08:48:03.136Z,94418.47
2023-08-24T08:50:33.082Z,94428.09
2023-08-24T08:52:59.965Z,94413.16
2023-08-24T08:55:27.218Z,94405.41
2023-08-24T08:57:59.430Z,94405.81
2023-08-24T09:00:27.069Z,94398.78
2023-08-24T09:02:55.325Z,94401.16
2023-08-24T09:05:22.585Z,94396.78
2023-08-24T09:07:50.360Z,94400.72
2023-08-24T09:10:17.294Z,94397.84
2023-08-24T09:12:44.268Z,94397.22
2023-08-24T09:15:11.684Z,94398.22
2023-08-24T09:17:43.914Z,94391.41
2023-08-24T09:20:11.238Z,94392.47
2023-08-24T09:22:38.990Z,94391.75
2023-08-24T09:25:07.519Z,94388.53
2023-08-24T09:27:35.636Z,94400.91
2023-08-24T09:30:02.688Z,94396.03
2023-08-24T09:32:30.958Z,94401.50
2023-08-24T09:35:04.098Z,94400.72
2023-08-24T09:37:38.164Z,94399.97
2023-08-24T09:40:09.662Z,94399.25
2023-08-24T09:42:41.376Z,94399.38
2023-08-24T09:45:11.218Z,94390.28
2023-08-24T09:47:38.295Z,94396.16
2023-08-24T09:50:06.297Z,94388.38
2023-08-24T09:52:34.542Z,94385.50
2023-08-24T09:55:08.983Z,94391.84
2023-08-24T09:57:39.015Z,94380.94
2023-08-24T10:00:11.691Z,94375.09
2023-08-24T10:02:47.441Z,94367.06
2023-08-24T10:05:36.513Z,94360.50
2023-08-24T10:08:09.702Z,94354.41
2023-08-24T10:10:38.587Z,94353.34
2023-08-24T10:13:15.808Z,94343.72
2023-08-24T10:15:47.896Z,94349.66
2023-08-24T10:18:17.120Z,94341.00
2023-08-24T10:20:45.203Z,94341.63
2023-08-24T10:23:13.954Z,94331.06
2023-08-24T10:25:43.241Z,94328.94
2023-08-24T10:28:13.089Z,94318.53
2023-08-24T10:30:41.234Z,94318.09
2023-08-24T10:33:09.025Z,94306.75
2023-08-24T10:35:36.352Z,94302.88
2023-08-24T10:38:03.327Z,94299.97
2023-08-24T10:40:32.791Z,94293.78
2023-08-24T10:43:03.187Z,94296.97
2023-08-24T10:45:59.769Z,94287.63
2023-08-24T10:48:42.256Z,94285.28
2023-08-24T10:51:18.369Z,94274.56
2023-08-24T10:53:47.169Z,94274.25
2023-08-24T10:56:15.772Z,94272.69
2023-08-24T10:58:43.593Z,94268.81
2023-08-24T11:01:19.332Z,94260.50
2023-08-24T11:03:58.688Z,94262.84
2023-08-24T11:06:27.051Z,94248.38
2023-08-24T11:09:16.522Z,94256.81
2023-08-24T11:11:43.323Z,94254.06
2023-08-24T11:14:23.092Z,94260.72
2023-08-24T11:16:50.273Z,94252.22
2023-08-24T11:19:17.511Z,94237.47
2023-08-24T11:21:45.988Z,94255.72
2023-08-24T11:24:16.836Z,94243.25
2023-08-24T11:26:45.415Z,94238.09
2023-08-24T11:29:12.569Z,94238.88
2023-08-24T11:31:42.858Z,94242.09
2023-08-24T11:34:15.661Z,94233.44
2023-08-24T11:36:48.443Z,94238.53
2023-08-24T11:39:17.937Z,94226.66
2023-08-24T11:41:45.880Z,94222.25
2023-08-24T11:44:23.196Z,94223.22
2023-08-24T11:46:58.256Z,94213.59
2023-08-24T11:49:25.167Z,94223.47
2023-08-24T11:51:52.700Z,94225.44
2023-08-24T11:54:22.590Z,94221.19
2023-08-24T11:56:49.682Z,94221.66
2023-08-24T11:59:17.878Z,94214.34
2023-08-24T12:01:46.195Z,94222.84
2023-08-24T12:04:13.488Z,94224.47
2023-08-24T12:06:41.236Z,94218.59
2023-08-24T12:09:08.022Z,94213.94
2023-08-24T12:11:38.745Z,94214.44
2023-08-24T12:14:08.045Z,94200.50
2023-08-24T12:16:34.806Z,94214.06
2023-08-24T12:19:04.440Z,94194.16
2023-08-24T12:21:31.657Z,94191.50
2023-08-24T12:24:01.427Z,94186.84
2023-08-24T12:26:29.166Z,94181.38
2023-08-24T12:29:02.047Z,94183.94
2023-08-24T12:31:31.572Z,94175.13
2023-08-24T12:34:06.624Z,94178.66
2023-08-24T12:36:34.806Z,94173.00
2023-08-24T12:39:01.622Z,94170.84
2023-08-24T12:41:28.401Z,94165.72
2023-08-24T12:43:55.593Z,94169.59
2023-08-24T12:46:22.354Z,94167.22
2023-08-24T12:48:49.127Z,94161.28
2023-08-24T12:51:15.809Z,94160.50
2023-08-24T12:53:42.655Z,94142.13
2023-08-24T12:56:09.476Z,94156.00
2023-08-24T12:58:36.253Z,94144.53
2023-08-24T13:01:03.972Z,94137.84
2023-08-24T13:03:30.711Z,94141.94
2023-08-24T13:06:03.238Z,94133.75
2023-08-24T13:08:36.282Z,94127.72
2023-08-24T13:11:03.831Z,94119.09
2023-08-24T13:13:30.530Z,94114.31
2023-08-24T13:15:58.092Z,94115.09
2023-08-24T13:18:26.781Z,94117.97
2023-08-24T13:20:53.792Z,94107.03
2023-08-24T13:23:20.495Z,94100.09
2023-08-24T13:25:47.223Z,94103.88
2023-08-24T13:28:13.910Z,94091.50
2023-08-24T13:30:41.820Z,94106.63
2023-08-24T13:33:08.554Z,94103.38
2023-08-24T13:35:36.024Z,94098.84
2023-08-24T13:38:02.806Z,94091.75
2023-08-24T13:40:29.519Z,94086.31
2023-08-24T13:42:57.451Z,94076.31
2023-08-24T13:45:24.277Z,94070.25
2023-08-24T13:47:51.212Z,94071.47
2023-08-24T13:50:17.993Z,94064.44
2023-08-24T13:52:44.831Z,94075.09
2023-08-24T13:55:13.227Z,94082.59
2023-08-24T13:57:40.489Z,94073.97
2023-08-24T14:00:10.218Z,94075.25
2023-08-24T14:02:40.125Z,94064.00
2023-08-24T14:05:10.359Z,94059.84
2023-08-24T14:07:37.278Z,94047.22
2023-08-24T14:10:06.670Z,94054.44
2023-08-24T14:12:33.846Z,94053.25
2023-08-24T14:15:01.376Z,94050.81
2023-08-24T14:17:28.171Z,94044.06
2023-08-24T14:19:55.060Z,94030.56
2023-08-24T14:22:21.732Z,94026.06
2023-08-24T14:24:48.412Z,94028.66
2023-08-24T14:27:15.066Z,94030.94
2023-08-24T14:29:41.783Z,94039.84
2023-08-24T14:32:08.466Z,94039.66
2023-08-24T14:34:35.845Z,94023.22
2023-08-24T14:37:02.588Z,94013.72
2023-08-24T14:39:29.365Z,94016.81
2023-08-24T14:41:56.145Z,94006.13
2023-08-24T14:44:23.023Z,94016.75
2023-08-24T14:46:49.961Z,94016.78
2023-08-24T14:49:20.282Z,94015.22
2023-08-24T14:51:48.160Z,94015.78
2023-08-24T14:54:16.138Z,94005.47
2023-08-24T14:56:43.151Z,94011.50
2023-08-24T14:59:09.930Z,94001.06
2023-08-24T15:01:36.859Z,93993.50
2023-08-24T15:04:03.893Z,93996.69
2023-08-24T15:06:30.629Z,93989.03
2023-08-24T15:08:59.208Z,93985.16
2023-08-24T15:11:26.058Z,93982.66
2023-08-24T15:13:54.017Z,93979.81
2023-08-24T15:16:20.812Z,93985.31
2023-08-24T15:18:47.557Z,93991.91
2023-08-24T15:21:16.167Z,94007.25
2023-08-24T15:23:43.115Z,94011.75
2023-08-24T15:26:09.978Z,94018.22
2023-08-24T15:28:38.545Z,94027.22
2023-08-24T15:31:06.140Z,94044.38
2023-08-24T15:33:33.448Z,94051.34
2023-08-24T15:36:00.401Z,94072.00
2023-08-24T15:38:27.176Z,94041.47
2023-08-24T15:40:57.315Z,94050.69
2023-08-24T15:43:24.086Z,94049.97
2023-08-24T15:45:52.875Z,94039.06
2023-08-24T15:48:19.660Z,94047.50
2023-08-24T15:50:46.597Z,94052.28
2023-08-24T15:53:13.339Z,94034.38
2023-08-24T15:55:40.103Z,94054.22
2023-08-24T15:58:06.866Z,94052.53
2023-08-24T16:00:34.794Z,94050.56
2023-08-24T16:03:01.517Z,94044.91
2023-08-24T16:05:28.437Z,94052.31
2023-08-24T16:07:57.921Z,94037.25
2023-08-24T16:10:25.245Z,94024.03
2023-08-24T16:12:52.013Z,94009.75
2023-08-24T16:15:19.009Z,94003.00
2023-08-24T16:17:45.788Z,93998.09
2023-08-24T16:20:12.891Z,93997.97
2023-08-24T16:22:40.393Z,94015.94
2023-08-24T16:25:08.161Z,94008.84
2023-08-24T16:27:35.655Z,94022.34
2023-08-24T16:30:04.393Z,94028.56
2023-08-24T16:32:31.564Z,94059.38
2023-08-24T16:34:58.463Z,94075.38
2023-08-24T16:37:25.232Z,94093.66
2023-08-24T16:39:52.046Z,94090.91
2023-08-24T16:42:19.463Z,94093.97
2023-08-24T16:44:47.523Z,94094.84
2023-08-24T16:47:14.827Z,94102.81
2023-08-24T16:49:41.655Z,94097.81
2023-08-24T16:52:08.365Z,94080.50
2023-08-24T16:54:35.092Z,94078.56
2023-08-24T16:57:01.847Z,94082.09
2023-08-24T16:59:28.821Z,94103.75
2023-08-24T17:01:55.539Z,94113.34
2023-08-24T17:04:22.860Z,94104.13
2023-08-24T17:06:49.737Z,94107.75
2023-08-24T17:09:16.521Z,94118.34
2023-08-24T17:11:43.365Z,94125.44
2023-08-24T17:14:10.107Z,94157.34
2023-08-24T17:16:36.942Z,94167.63
2023-08-24T17:19:03.787Z,94163.03
2023-08-24T17:21:30.599Z,94132.84
2023-08-24T17:23:58.058Z,94112.38
2023-08-24T17:26:24.894Z,94106.44
2023-08-24T17:28:51.833Z,94093.38
2023-08-24T17:31:18.943Z,94097.34
2023-08-24T17:33:45.738Z,94081.09
2023-08-24T17:36:12.475Z,94098.50
2023-08-24T17:38:39.192Z,94094.72
2023-08-24T17:41:07.839Z,94091.38
2023-08-24T17:43:35.489Z,94085.16
2023-08-24T17:46:03.530Z,94083.19
2023-08-24T17:48:31.512Z,94058.88
2023-08-24T17:51:00.355Z,94060.41
2023-08-24T17:53:28.963Z,94057.38
2023-08-24T17:55:56.372Z,94029.88
2023-08-24T17:58:23.949Z,94023.06
2023-08-24T18:00:51.138Z,94000.59
2023-08-24T18:03:18.761Z,94003.09
2023-08-24T18:05:46.008Z,93999.69
2023-08-24T18:08:13.349Z,93997.69
2023-08-24T18:10:40.315Z,93988.44
2023-08-24T18:13:07.304Z,93952.66
2023-08-24T18:15:43.081Z,93949.09
2023-08-24T18:18:09.877Z,93956.78
2023-08-24T18:20:36.655Z,93944.72
2023-08-24T18:23:03.573Z,93943.94
2023-08-24T18:25:30.312Z,93926.63
2023-08-24T18:27:57.306Z,93941.53
2023-08-24T18:30:24.391Z,93947.38
2023-08-24T18:32:51.152Z,93959.38
2023-08-24T18:35:18.049Z,93954.75
2023-08-24T18:37:44.801Z,93975.44
2023-08-24T18:40:11.582Z,93964.97
2023-08-24T18:42:38.578Z,93975.06
2023-08-24T18:45:06.676Z,93981.25
2023-08-24T18:47:33.864Z,93983.31
2023-08-24T18:50:00.857Z,94008.84
2023-08-24T18:52:28.784Z,94016.75
2023-08-24T18:54:57.353Z,94026.28
2023-08-24T18:57:24.258Z,94024.06
2023-08-24T18:59:51.300Z,94010.06
2023-08-24T19:02:19.567Z,94008.78
2023-08-24T19:04:46.488Z,94034.00
2023-08-24T19:07:13.309Z,94034.69
2023-08-24T19:09:40.200Z,94057.16
2023-08-24T19:12:07.262Z,94072.84
2023-08-24T19:14:36.780Z,94080.25
2023-08-24T19:17:04.776Z,94076.47
2023-08-24T19:19:31.794Z,94067.09
2023-08-24T19:21:58.694Z,94063.25
2023-08-24T19:24:25.516Z,94070.91
2023-08-24T19:26:52.448Z,94062.03
2023-08-24T19:29:19.899Z,94084.91
2023-08-24T19:31:47.275Z,94103.69
2023-08-24T19:34:14.295Z,94198.19
2023-08-24T19:36:41.120Z,94375.94
2023-08-24T19:39:07.824Z,94452.69
2023-08-24T19:41:40.875Z,94451.56
2023-08-24T19:44:13.569Z,94433.69
2023-08-24T19:46:40.307Z,94393.91
2023-08-24T19:49:08.777Z,94338.00
2023-08-24T19:51:35.835Z,94316.34
2023-08-24T19:54:02.536Z,94322.19
2023-08-24T19:56:29.546Z,94352.56
2023-08-24T19:58:56.279Z,94321.09
2023-08-24T20:01:23.056Z,94272.91
2023-08-24T20:03:49.929Z,94253.88
2023-08-24T20:06:27.259Z,94256.59
2023-08-24T20:08:55.405Z,94243.78
2023-08-24T20:11:22.301Z,94164.06
2023-08-24T20:13:49.166Z,94196.72
2023-08-24T20:16:16.503Z,94164.06
2023-08-24T20:18:44.891Z,94183.13
2023-08-24T20:21:11.896Z,94143.06
2023-08-24T20:23:42.095Z,94151.56
2023-08-24T20:26:13.153Z,94134.09
2023-08-24T20:28:41.159Z,94144.63
2023-08-24T20:31:09.209Z,94121.28
2023-08-24T20:33:36.858Z,94139.94
2023-08-24T20:36:05.405Z,94094.47
2023-08-24T20:38:32.611Z,94121.66
2023-08-24T20:41:03.799Z,94110.78
2023-08-24T20:43:31.705Z,94094.44
2023-08-24T20:45:58.623Z,94120.50
2023-08-24T20:48:25.524Z,94140.72
2023-08-24T20:50:56.904Z,94201.00
2023-08-24T20:53:24.701Z,94271.34
2023-08-24T20:55:52.346Z,94240.97
2023-08-24T20:58:19.201Z,94280.59
2023-08-24T21:00:46.312Z,94291.84
2023-08-24T21:03:13.400Z,94275.09
2023-08-24T21:05:40.363Z,94288.69
2023-08-24T21:08:07.150Z,94289.50
2023-08-24T21:10:34.063Z,94268.91
2023-08-24T21:13:01.855Z,94260.03
2023-08-24T21:15:28.615Z,94252.25
2023-08-24T21:17:55.535Z,94236.69
2023-08-24T21:20:23.074Z,94219.22
2023-08-24T21:22:49.798Z,94225.41
2023-08-24T21:25:16.862Z,94214.16
2023-08-24T21:27:43.597Z,94237.47
2023-08-24T21:30:10.882Z,94242.47
2023-08-24T21:32:37.833Z,94228.09
2023-08-24T21:35:05.017Z,94232.75
2023-08-24T21:37:33.043Z,94237.44
2023-08-24T21:40:01.225Z,94220.66
2023-08-24T21:42:28.100Z,94215.66
2023-08-24T21:44:54.811Z,94226.13
2023-08-24T21:47:21.565Z,94233.13
2023-08-24T21:49:48.413Z,94241.28
2023-08-24T21:52:15.195Z,94228.88
2023-08-24T21:54:41.924Z,94233.91
2023-08-24T21:57:08.739Z,94227.69
2023-08-24T21:59:35.529Z,94206.69
2023-08-24T22:02:02.337Z,94177.94
2023-08-24T22:04:29.127Z,94162.81
2023-08-24T22:06:55.901Z,94214.47
2023-08-24T22:09:23.362Z,94157.75
2023-08-24T22:11:50.123Z,94184.59
2023-08-24T22:14:16.839Z,94184.19
2023-08-24T22:16:43.619Z,94200.88
2023-08-24T22:19:21.352Z,94203.19
2023-08-24T22:21:53.146Z,94184.19
2023-08-24T22:24:19.889Z,94203.63
2023-08-24T22:26:46.623Z,94192.28
2023-08-24T22:29:13.432Z,94194.69
2023-08-24T22:31:40.265Z,94184.56
2023-08-24T22:34:07.115Z,94199.75
2023-08-24T22:36:34.886Z,94188.09
2023-08-24T22:39:01.849Z,94191.63
2023-08-24T22:41:28.690Z,94169.06
2023-08-24T22:43:55.505Z,94177.22
2023-08-24T22:46:22.382Z,94177.66
2023-08-24T22:48:49.393Z,94149.28
2023-08-24T22:51:16.219Z,94122.84
2023-08-24T22:53:42.987Z,94136.44
2023-08-24T22:56:09.727Z,94142.69
2023-08-24T22:58:36.504Z,94127.53
2023-08-24T23:01:14.705Z,94124.41
2023-08-24T23:03:41.651Z,94107.72
2023-08-24T23:06:14.531Z,94134.50
2023-08-24T23:08:42.887Z,94124.81
2023-08-24T23:11:10.394Z,94127.50
2023-08-24T23:13:37.153Z,94128.69
2023-08-24T23:16:06.859Z,94129.06
2023-08-24T23:18:33.858Z,94125.19
2023-08-24T23:21:01.254Z,94118.97
2023-08-24T23:23:28.392Z,94124.41
2023-08-24T23:25:55.261Z,94115.47
2023-08-24T23:28:22.185Z,94083.59
2023-08-24T23:30:49.105Z,94122.88
2023-08-24T23:33:16.120Z,94094.91
2023-08-24T23:35:46.095Z,94110.03
2023-08-24T23:38:12.885Z,94107.31
2023-08-24T23:40:39.641Z,94105.75
2023-08-24T23:43:06.447Z,94082.47
2023-08-24T23:45:33.416Z,94125.19
2023-08-24T23:48:00.382Z,94122.50
2023-08-24T23:50:28.270Z,94115.09
2023-08-24T23:52:55.117Z,94104.19
2023-08-24T23:55:21.951Z,94125.19
2023-08-24T23:57:48.692Z,94118.19
